sensor_id;sensor_type;location;lat;lon;timestamp;P1;durP1;ratioP1;P2;durP2;ratioP2
68072;SDS011;54862;51.502;7.446;2022-12-18T00:01:47;54.10;;;27.10;;
68072;SDS011;54862;51.502;7.446;2022-12-18T00:04:23;53.28;;;24.90;;
68072;SDS011;54862;51.502;7.446;2022-12-18T00:06:49;54.35;;;27.88;;
68072;SDS011;54862;51.502;7.446;2022-12-18T00:09:15;50.58;;;27.00;;
68072;SDS011;54862;51.502;7.446;2022-12-18T00:11:41;53.15;;;26.27;;
68072;SDS011;54862;51.502;7.446;2022-12-18T00:14:08;57.90;;;26.40;;
68072;SDS011;54862;51.502;7.446;2022-12-18T00:16:34;50.53;;;23.98;;
68072;SDS011;54862;51.502;7.446;2022-12-18T00:19:02;51.17;;;26.02;;
68072;SDS011;54862;51.502;7.446;2022-12-18T00:21:28;54.70;;;25.98;;
68072;SDS011;54862;51.502;7.446;2022-12-18T00:23:54;49.55;;;25.80;;
68072;SDS011;54862;51.502;7.446;2022-12-18T00:26:24;52.63;;;25.75;;
68072;SDS011;54862;51.502;7.446;2022-12-18T00:28:51;46.05;;;23.38;;
68072;SDS011;54862;51.502;7.446;2022-12-18T00:31:19;54.58;;;24.65;;
68072;SDS011;54862;51.502;7.446;2022-12-18T00:33:45;43.70;;;23.35;;
68072;SDS011;54862;51.502;7.446;2022-12-18T00:38:38;51.58;;;23.75;;
68072;SDS011;54862;51.502;7.446;2022-12-18T00:41:04;54.30;;;26.92;;
68072;SDS011;54862;51.502;7.446;2022-12-18T00:43:34;45.65;;;24.42;;
68072;SDS011;54862;51.502;7.446;2022-12-18T00:46:00;56.47;;;25.33;;
68072;SDS011;54862;51.502;7.446;2022-12-18T00:48:26;44.30;;;23.13;;
68072;SDS011;54862;51.502;7.446;2022-12-18T00:50:52;51.75;;;26.13;;
68072;SDS011;54862;51.502;7.446;2022-12-18T00:53:18;48.00;;;22.13;;
68072;SDS011;54862;51.502;7.446;2022-12-18T00:55:44;50.58;;;24.45;;
68072;SDS011;54862;51.502;7.446;2022-12-18T00:58:11;51.63;;;23.02;;
68072;SDS011;54862;51.502;7.446;2022-12-18T01:00:37;51.83;;;26.08;;
68072;SDS011;54862;51.502;7.446;2022-12-18T01:05:56;47.58;;;24.50;;
68072;SDS011;54862;51.502;7.446;2022-12-18T01:08:22;44.78;;;25.63;;
68072;SDS011;54862;51.502;7.446;2022-12-18T01:10:48;50.75;;;23.73;;
68072;SDS011;54862;51.502;7.446;2022-12-18T01:13:14;49.58;;;23.52;;
68072;SDS011;54862;51.502;7.446;2022-12-18T01:15:47;48.55;;;24.98;;
68072;SDS011;54862;51.502;7.446;2022-12-18T01:18:13;47.60;;;22.55;;
68072;SDS011;54862;51.502;7.446;2022-12-18T01:20:39;48.63;;;24.25;;
68072;SDS011;54862;51.502;7.446;2022-12-18T01:23:05;45.97;;;24.17;;
68072;SDS011;54862;51.502;7.446;2022-12-18T01:25:31;52.47;;;23.77;;
68072;SDS011;54862;51.502;7.446;2022-12-18T01:27:56;49.45;;;24.35;;
68072;SDS011;54862;51.502;7.446;2022-12-18T01:30:22;49.85;;;23.23;;
68072;SDS011;54862;51.502;7.446;2022-12-18T01:32:48;49.88;;;23.90;;
68072;SDS011;54862;51.502;7.446;2022-12-18T01:35:14;47.85;;;22.10;;
68072;SDS011;54862;51.502;7.446;2022-12-18T01:37:40;41.78;;;22.48;;
68072;SDS011;54862;51.502;7.446;2022-12-18T01:40:07;47.75;;;24.63;;
68072;SDS011;54862;51.502;7.446;2022-12-18T01:42:33;47.15;;;22.23;;
68072;SDS011;54862;51.502;7.446;2022-12-18T01:49:54;49.92;;;24.55;;
68072;SDS011;54862;51.502;7.446;2022-12-18T01:52:21;51.03;;;22.30;;
68072;SDS011;54862;51.502;7.446;2022-12-18T01:54:47;43.08;;;22.98;;
68072;SDS011;54862;51.502;7.446;2022-12-18T01:57:14;44.10;;;23.55;;
68072;SDS011;54862;51.502;7.446;2022-12-18T01:59:41;47.15;;;22.02;;
68072;SDS011;54862;51.502;7.446;2022-12-18T02:02:08;39.67;;;19.98;;
68072;SDS011;54862;51.502;7.446;2022-12-18T02:04:34;42.97;;;21.42;;
68072;SDS011;54862;51.502;7.446;2022-12-18T02:07:06;39.42;;;21.70;;
68072;SDS011;54862;51.502;7.446;2022-12-18T02:09:40;43.30;;;20.67;;
68072;SDS011;54862;51.502;7.446;2022-12-18T02:12:17;52.08;;;23.30;;
68072;SDS011;54862;51.502;7.446;2022-12-18T02:14:47;41.58;;;22.42;;
68072;SDS011;54862;51.502;7.446;2022-12-18T02:25:26;44.67;;;21.55;;
68072;SDS011;54862;51.502;7.446;2022-12-18T02:27:54;47.67;;;20.73;;
68072;SDS011;54862;51.502;7.446;2022-12-18T02:30:22;37.58;;;19.23;;
68072;SDS011;54862;51.502;7.446;2022-12-18T02:32:50;41.90;;;21.67;;
68072;SDS011;54862;51.502;7.446;2022-12-18T02:35:17;45.88;;;21.20;;
68072;SDS011;54862;51.502;7.446;2022-12-18T02:37:45;41.42;;;20.33;;
68072;SDS011;54862;51.502;7.446;2022-12-18T02:40:12;47.67;;;21.85;;
68072;SDS011;54862;51.502;7.446;2022-12-18T02:42:39;42.53;;;22.40;;
68072;SDS011;54862;51.502;7.446;2022-12-18T02:45:05;47.83;;;20.42;;
68072;SDS011;54862;51.502;7.446;2022-12-18T02:47:32;45.50;;;21.48;;
68072;SDS011;54862;51.502;7.446;2022-12-18T02:55:16;42.35;;;20.75;;
68072;SDS011;54862;51.502;7.446;2022-12-18T02:57:54;44.20;;;18.85;;
68072;SDS011;54862;51.502;7.446;2022-12-18T03:00:23;37.83;;;18.95;;
68072;SDS011;54862;51.502;7.446;2022-12-18T03:02:59;35.72;;;16.92;;
68072;SDS011;54862;51.502;7.446;2022-12-18T03:05:33;36.78;;;18.52;;
68072;SDS011;54862;51.502;7.446;2022-12-18T03:08:08;35.08;;;17.45;;
68072;SDS011;54862;51.502;7.446;2022-12-18T03:10:38;34.40;;;17.27;;
68072;SDS011;54862;51.502;7.446;2022-12-18T03:13:11;36.28;;;17.17;;
68072;SDS011;54862;51.502;7.446;2022-12-18T03:15:44;36.75;;;16.80;;
68072;SDS011;54862;51.502;7.446;2022-12-18T03:18:12;36.67;;;18.10;;
68072;SDS011;54862;51.502;7.446;2022-12-18T03:20:40;36.60;;;17.27;;
68072;SDS011;54862;51.502;7.446;2022-12-18T03:23:12;36.10;;;17.27;;
68072;SDS011;54862;51.502;7.446;2022-12-18T03:25:40;36.10;;;16.10;;
68072;SDS011;54862;51.502;7.446;2022-12-18T03:28:07;32.67;;;17.17;;
68072;SDS011;54862;51.502;7.446;2022-12-18T03:30:34;31.00;;;16.77;;
68072;SDS011;54862;51.502;7.446;2022-12-18T03:33:24;35.42;;;18.80;;
68072;SDS011;54862;51.502;7.446;2022-12-18T03:35:48;34.08;;;17.02;;
68072;SDS011;54862;51.502;7.446;2022-12-18T03:38:14;33.17;;;17.52;;
68072;SDS011;54862;51.502;7.446;2022-12-18T03:40:44;36.25;;;18.08;;
68072;SDS011;54862;51.502;7.446;2022-12-18T03:43:15;38.00;;;20.05;;
68072;SDS011;54862;51.502;7.446;2022-12-18T03:55:45;39.20;;;20.25;;
68072;SDS011;54862;51.502;7.446;2022-12-18T03:58:14;44.83;;;19.77;;
68072;SDS011;54862;51.502;7.446;2022-12-18T04:00:42;42.30;;;20.13;;
68072;SDS011;54862;51.502;7.446;2022-12-18T04:03:08;42.17;;;20.35;;
68072;SDS011;54862;51.502;7.446;2022-12-18T04:05:35;37.72;;;20.20;;
68072;SDS011;54862;51.502;7.446;2022-12-18T04:08:02;43.70;;;21.15;;
68072;SDS011;54862;51.502;7.446;2022-12-18T04:10:28;40.55;;;20.27;;
68072;SDS011;54862;51.502;7.446;2022-12-18T04:12:55;39.75;;;21.10;;
68072;SDS011;54862;51.502;7.446;2022-12-18T04:15:22;36.60;;;17.65;;
68072;SDS011;54862;51.502;7.446;2022-12-18T04:17:48;45.05;;;20.02;;
68072;SDS011;54862;51.502;7.446;2022-12-18T04:20:15;39.55;;;20.38;;
68072;SDS011;54862;51.502;7.446;2022-12-18T04:22:41;41.85;;;18.98;;
68072;SDS011;54862;51.502;7.446;2022-12-18T04:25:07;44.25;;;21.70;;
68072;SDS011;54862;51.502;7.446;2022-12-18T04:27:33;34.45;;;17.75;;
68072;SDS011;54862;51.502;7.446;2022-12-18T04:29:59;36.20;;;19.40;;
68072;SDS011;54862;51.502;7.446;2022-12-18T04:32:25;38.38;;;19.75;;
68072;SDS011;54862;51.502;7.446;2022-12-18T04:34:51;46.05;;;20.08;;
68072;SDS011;54862;51.502;7.446;2022-12-18T04:37:17;41.17;;;20.50;;
68072;SDS011;54862;51.502;7.446;2022-12-18T04:39:43;32.80;;;17.10;;
68072;SDS011;54862;51.502;7.446;2022-12-18T04:42:09;41.13;;;20.60;;
68072;SDS011;54862;51.502;7.446;2022-12-18T04:44:36;38.72;;;19.50;;
68072;SDS011;54862;51.502;7.446;2022-12-18T04:47:02;44.13;;;19.27;;
68072;SDS011;54862;51.502;7.446;2022-12-18T04:49:28;40.17;;;19.08;;
68072;SDS011;54862;51.502;7.446;2022-12-18T04:51:54;41.03;;;20.48;;
68072;SDS011;54862;51.502;7.446;2022-12-18T04:54:20;35.97;;;19.13;;
68072;SDS011;54862;51.502;7.446;2022-12-18T04:56:46;35.78;;;18.10;;
68072;SDS011;54862;51.502;7.446;2022-12-18T04:59:12;33.30;;;18.60;;
68072;SDS011;54862;51.502;7.446;2022-12-18T05:01:38;39.47;;;19.17;;
68072;SDS011;54862;51.502;7.446;2022-12-18T05:04:04;37.00;;;19.05;;
68072;SDS011;54862;51.502;7.446;2022-12-18T05:06:30;32.05;;;17.17;;
68072;SDS011;54862;51.502;7.446;2022-12-18T05:08:56;36.33;;;18.13;;
68072;SDS011;54862;51.502;7.446;2022-12-18T05:11:22;34.88;;;19.13;;
68072;SDS011;54862;51.502;7.446;2022-12-18T05:13:48;33.85;;;19.63;;
68072;SDS011;54862;51.502;7.446;2022-12-18T05:16:14;40.22;;;18.27;;
68072;SDS011;54862;51.502;7.446;2022-12-18T05:18:41;29.63;;;15.60;;
68072;SDS011;54862;51.502;7.446;2022-12-18T05:21:07;35.30;;;18.23;;
68072;SDS011;54862;51.502;7.446;2022-12-18T05:23:36;30.52;;;17.02;;
68072;SDS011;54862;51.502;7.446;2022-12-18T05:26:03;30.52;;;16.80;;
68072;SDS011;54862;51.502;7.446;2022-12-18T05:28:30;38.58;;;16.27;;
68072;SDS011;54862;51.502;7.446;2022-12-18T05:30:57;28.65;;;14.48;;
68072;SDS011;54862;51.502;7.446;2022-12-18T05:33:24;26.50;;;13.85;;
68072;SDS011;54862;51.502;7.446;2022-12-18T05:35:50;25.08;;;12.52;;
68072;SDS011;54862;51.502;7.446;2022-12-18T05:38:17;25.33;;;11.57;;
68072;SDS011;54862;51.502;7.446;2022-12-18T05:40:43;24.73;;;11.07;;
68072;SDS011;54862;51.502;7.446;2022-12-18T05:43:09;18.92;;;9.98;;
68072;SDS011;54862;51.502;7.446;2022-12-18T05:45:38;26.10;;;10.68;;
68072;SDS011;54862;51.502;7.446;2022-12-18T05:48:08;18.33;;;9.65;;
68072;SDS011;54862;51.502;7.446;2022-12-18T05:50:35;19.70;;;9.38;;
68072;SDS011;54862;51.502;7.446;2022-12-18T05:53:02;14.68;;;7.07;;
68072;SDS011;54862;51.502;7.446;2022-12-18T05:55:28;20.40;;;9.43;;
68072;SDS011;54862;51.502;7.446;2022-12-18T05:57:54;20.15;;;8.57;;
68072;SDS011;54862;51.502;7.446;2022-12-18T06:00:20;18.20;;;8.23;;
68072;SDS011;54862;51.502;7.446;2022-12-18T06:02:46;15.45;;;6.85;;
68072;SDS011;54862;51.502;7.446;2022-12-18T06:05:12;13.95;;;5.88;;
68072;SDS011;54862;51.502;7.446;2022-12-18T06:07:38;18.48;;;8.23;;
68072;SDS011;54862;51.502;7.446;2022-12-18T06:10:04;13.57;;;6.70;;
68072;SDS011;54862;51.502;7.446;2022-12-18T06:12:30;13.30;;;6.60;;
68072;SDS011;54862;51.502;7.446;2022-12-18T06:14:58;15.25;;;6.10;;
68072;SDS011;54862;51.502;7.446;2022-12-18T06:17:27;16.27;;;7.05;;
68072;SDS011;54862;51.502;7.446;2022-12-18T06:19:53;15.00;;;7.18;;
68072;SDS011;54862;51.502;7.446;2022-12-18T06:22:19;13.57;;;6.10;;
68072;SDS011;54862;51.502;7.446;2022-12-18T06:24:45;13.30;;;6.45;;
68072;SDS011;54862;51.502;7.446;2022-12-18T06:27:11;10.95;;;5.53;;
68072;SDS011;54862;51.502;7.446;2022-12-18T06:29:37;11.75;;;5.55;;
68072;SDS011;54862;51.502;7.446;2022-12-18T06:32:03;10.75;;;5.10;;
68072;SDS011;54862;51.502;7.446;2022-12-18T06:34:32;11.32;;;5.53;;
68072;SDS011;54862;51.502;7.446;2022-12-18T06:36:58;12.50;;;5.50;;
68072;SDS011;54862;51.502;7.446;2022-12-18T06:39:26;13.00;;;4.95;;
68072;SDS011;54862;51.502;7.446;2022-12-18T06:41:53;12.02;;;5.45;;
68072;SDS011;54862;51.502;7.446;2022-12-18T06:44:19;11.65;;;5.18;;
68072;SDS011;54862;51.502;7.446;2022-12-18T06:46:45;11.93;;;5.22;;
68072;SDS011;54862;51.502;7.446;2022-12-18T06:49:11;10.02;;;4.82;;
68072;SDS011;54862;51.502;7.446;2022-12-18T06:51:37;11.75;;;4.82;;
68072;SDS011;54862;51.502;7.446;2022-12-18T06:54:03;9.57;;;4.88;;
68072;SDS011;54862;51.502;7.446;2022-12-18T06:56:29;15.18;;;6.88;;
68072;SDS011;54862;51.502;7.446;2022-12-18T06:58:56;13.85;;;5.90;;
68072;SDS011;54862;51.502;7.446;2022-12-18T07:01:22;15.30;;;6.00;;
68072;SDS011;54862;51.502;7.446;2022-12-18T07:03:55;14.88;;;6.00;;
68072;SDS011;54862;51.502;7.446;2022-12-18T07:08:47;9.70;;;4.90;;
68072;SDS011;54862;51.502;7.446;2022-12-18T07:11:14;11.55;;;5.55;;
68072;SDS011;54862;51.502;7.446;2022-12-18T07:13:40;11.60;;;5.45;;
68072;SDS011;54862;51.502;7.446;2022-12-18T07:16:13;10.48;;;4.72;;
68072;SDS011;54862;51.502;7.446;2022-12-18T07:18:40;12.00;;;5.82;;
68072;SDS011;54862;51.502;7.446;2022-12-18T07:21:06;13.55;;;5.03;;
68072;SDS011;54862;51.502;7.446;2022-12-18T07:23:33;12.15;;;5.63;;
68072;SDS011;54862;51.502;7.446;2022-12-18T07:26:03;11.23;;;5.00;;
68072;SDS011;54862;51.502;7.446;2022-12-18T07:28:30;12.38;;;5.70;;
68072;SDS011;54862;51.502;7.446;2022-12-18T07:30:56;12.23;;;5.15;;
68072;SDS011;54862;51.502;7.446;2022-12-18T07:33:22;9.88;;;4.70;;
68072;SDS011;54862;51.502;7.446;2022-12-18T07:35:48;8.25;;;4.28;;
68072;SDS011;54862;51.502;7.446;2022-12-18T07:38:14;13.95;;;4.82;;
68072;SDS011;54862;51.502;7.446;2022-12-18T07:40:40;14.00;;;4.45;;
68072;SDS011;54862;51.502;7.446;2022-12-18T07:43:06;8.38;;;3.75;;
68072;SDS011;54862;51.502;7.446;2022-12-18T07:45:32;12.57;;;4.30;;
68072;SDS011;54862;51.502;7.446;2022-12-18T07:47:58;9.50;;;4.72;;
68072;SDS011;54862;51.502;7.446;2022-12-18T07:50:24;9.13;;;3.92;;
68072;SDS011;54862;51.502;7.446;2022-12-18T07:52:50;9.15;;;4.47;;
68072;SDS011;54862;51.502;7.446;2022-12-18T07:55:16;8.85;;;4.05;;
68072;SDS011;54862;51.502;7.446;2022-12-18T07:57:42;9.18;;;3.92;;
68072;SDS011;54862;51.502;7.446;2022-12-18T08:00:08;10.70;;;4.28;;
68072;SDS011;54862;51.502;7.446;2022-12-18T08:02:34;10.13;;;4.03;;
68072;SDS011;54862;51.502;7.446;2022-12-18T08:05:00;8.98;;;4.05;;
68072;SDS011;54862;51.502;7.446;2022-12-18T08:07:26;8.52;;;3.63;;
68072;SDS011;54862;51.502;7.446;2022-12-18T08:09:52;8.02;;;3.85;;
68072;SDS011;54862;51.502;7.446;2022-12-18T08:12:18;8.13;;;3.42;;
68072;SDS011;54862;51.502;7.446;2022-12-18T08:14:43;7.90;;;3.42;;
68072;SDS011;54862;51.502;7.446;2022-12-18T08:17:09;10.05;;;3.70;;
68072;SDS011;54862;51.502;7.446;2022-12-18T08:19:35;8.85;;;3.70;;
68072;SDS011;54862;51.502;7.446;2022-12-18T08:22:01;7.70;;;3.28;;
68072;SDS011;54862;51.502;7.446;2022-12-18T08:24:27;6.68;;;2.95;;
68072;SDS011;54862;51.502;7.446;2022-12-18T08:26:53;9.93;;;3.85;;
68072;SDS011;54862;51.502;7.446;2022-12-18T08:29:19;7.65;;;3.83;;
68072;SDS011;54862;51.502;7.446;2022-12-18T08:31:45;9.98;;;3.78;;
68072;SDS011;54862;51.502;7.446;2022-12-18T08:34:11;8.48;;;3.42;;
68072;SDS011;54862;51.502;7.446;2022-12-18T08:36:38;8.90;;;3.42;;
68072;SDS011;54862;51.502;7.446;2022-12-18T08:39:04;14.05;;;3.40;;
68072;SDS011;54862;51.502;7.446;2022-12-18T08:41:30;8.55;;;3.13;;
68072;SDS011;54862;51.502;7.446;2022-12-18T08:43:56;7.78;;;3.50;;
68072;SDS011;54862;51.502;7.446;2022-12-18T08:46:41;8.73;;;3.78;;
68072;SDS011;54862;51.502;7.446;2022-12-18T08:49:08;9.05;;;3.58;;
68072;SDS011;54862;51.502;7.446;2022-12-18T08:51:35;7.55;;;3.20;;
68072;SDS011;54862;51.502;7.446;2022-12-18T08:54:01;11.82;;;3.70;;
68072;SDS011;54862;51.502;7.446;2022-12-18T08:56:27;7.88;;;3.40;;
68072;SDS011;54862;51.502;7.446;2022-12-18T08:58:54;10.43;;;4.25;;
68072;SDS011;54862;51.502;7.446;2022-12-18T09:01:21;8.65;;;3.47;;
68072;SDS011;54862;51.502;7.446;2022-12-18T09:03:48;8.48;;;3.58;;
68072;SDS011;54862;51.502;7.446;2022-12-18T09:06:15;9.60;;;3.55;;
68072;SDS011;54862;51.502;7.446;2022-12-18T09:08:41;8.27;;;3.40;;
68072;SDS011;54862;51.502;7.446;2022-12-18T09:11:21;8.82;;;3.47;;
68072;SDS011;54862;51.502;7.446;2022-12-18T09:13:48;8.13;;;3.28;;
68072;SDS011;54862;51.502;7.446;2022-12-18T09:16:14;8.70;;;3.58;;
68072;SDS011;54862;51.502;7.446;2022-12-18T09:18:40;7.25;;;3.53;;
68072;SDS011;54862;51.502;7.446;2022-12-18T09:21:09;10.13;;;4.53;;
68072;SDS011;54862;51.502;7.446;2022-12-18T09:23:35;19.45;;;5.13;;
68072;SDS011;54862;51.502;7.446;2022-12-18T09:26:01;9.98;;;4.53;;
68072;SDS011;54862;51.502;7.446;2022-12-18T09:28:27;12.13;;;4.47;;
68072;SDS011;54862;51.502;7.446;2022-12-18T09:30:53;12.75;;;4.43;;
68072;SDS011;54862;51.502;7.446;2022-12-18T09:33:19;9.32;;;4.28;;
68072;SDS011;54862;51.502;7.446;2022-12-18T09:35:46;12.10;;;4.45;;
68072;SDS011;54862;51.502;7.446;2022-12-18T09:38:14;5.88;;;2.83;;
68072;SDS011;54862;51.502;7.446;2022-12-18T09:40:44;7.22;;;3.08;;
68072;SDS011;54862;51.502;7.446;2022-12-18T09:43:14;7.57;;;3.05;;
68072;SDS011;54862;51.502;7.446;2022-12-18T09:45:42;7.10;;;2.80;;
68072;SDS011;54862;51.502;7.446;2022-12-18T09:48:28;7.80;;;2.97;;
68072;SDS011;54862;51.502;7.446;2022-12-18T09:51:03;7.18;;;3.05;;
68072;SDS011;54862;51.502;7.446;2022-12-18T09:53:33;9.07;;;3.38;;
68072;SDS011;54862;51.502;7.446;2022-12-18T09:56:01;7.00;;;2.80;;
68072;SDS011;54862;51.502;7.446;2022-12-18T09:58:30;7.25;;;3.13;;
68072;SDS011;54862;51.502;7.446;2022-12-18T10:00:57;8.02;;;3.17;;
68072;SDS011;54862;51.502;7.446;2022-12-18T10:03:24;10.30;;;3.70;;
68072;SDS011;54862;51.502;7.446;2022-12-18T10:16:13;7.20;;;2.80;;
68072;SDS011;54862;51.502;7.446;2022-12-18T10:21:21;6.00;;;2.30;;
68072;SDS011;54862;51.502;7.446;2022-12-18T10:24:11;8.07;;;2.80;;
68072;SDS011;54862;51.502;7.446;2022-12-18T10:26:40;8.68;;;2.85;;
68072;SDS011;54862;51.502;7.446;2022-12-18T10:29:14;6.57;;;2.50;;
68072;SDS011;54862;51.502;7.446;2022-12-18T10:31:40;6.88;;;2.47;;
68072;SDS011;54862;51.502;7.446;2022-12-18T10:34:12;5.93;;;2.92;;
68072;SDS011;54862;51.502;7.446;2022-12-18T10:36:38;5.78;;;2.63;;
68072;SDS011;54862;51.502;7.446;2022-12-18T10:39:13;8.80;;;3.55;;
68072;SDS011;54862;51.502;7.446;2022-12-18T10:41:39;12.75;;;3.40;;
68072;SDS011;54862;51.502;7.446;2022-12-18T10:44:15;7.13;;;3.55;;
68072;SDS011;54862;51.502;7.446;2022-12-18T10:46:42;7.85;;;3.13;;
68072;SDS011;54862;51.502;7.446;2022-12-18T10:49:23;8.48;;;3.47;;
68072;SDS011;54862;51.502;7.446;2022-12-18T10:51:50;6.15;;;2.75;;
68072;SDS011;54862;51.502;7.446;2022-12-18T10:54:18;6.93;;;3.10;;
68072;SDS011;54862;51.502;7.446;2022-12-18T10:56:45;6.10;;;2.90;;
68072;SDS011;54862;51.502;7.446;2022-12-18T10:59:12;8.02;;;3.28;;
68072;SDS011;54862;51.502;7.446;2022-12-18T11:01:46;7.65;;;3.05;;
68072;SDS011;54862;51.502;7.446;2022-12-18T11:04:15;8.38;;;3.25;;
68072;SDS011;54862;51.502;7.446;2022-12-18T11:06:55;7.15;;;2.85;;
68072;SDS011;54862;51.502;7.446;2022-12-18T11:09:31;5.88;;;3.05;;
68072;SDS011;54862;51.502;7.446;2022-12-18T11:11:58;10.32;;;3.05;;
68072;SDS011;54862;51.502;7.446;2022-12-18T11:14:26;8.98;;;3.75;;
68072;SDS011;54862;51.502;7.446;2022-12-18T11:16:52;8.40;;;3.30;;
68072;SDS011;54862;51.502;7.446;2022-12-18T11:19:31;7.95;;;3.13;;
68072;SDS011;54862;51.502;7.446;2022-12-18T11:21:59;8.35;;;2.85;;
68072;SDS011;54862;51.502;7.446;2022-12-18T11:24:28;10.88;;;2.90;;
68072;SDS011;54862;51.502;7.446;2022-12-18T11:26:55;8.10;;;3.10;;
68072;SDS011;54862;51.502;7.446;2022-12-18T11:29:43;6.63;;;2.63;;
68072;SDS011;54862;51.502;7.446;2022-12-18T11:32:55;6.43;;;2.65;;
68072;SDS011;54862;51.502;7.446;2022-12-18T11:34:58;7.32;;;2.97;;
68072;SDS011;54862;51.502;7.446;2022-12-18T11:37:25;6.28;;;2.72;;
68072;SDS011;54862;51.502;7.446;2022-12-18T11:39:54;10.93;;;3.30;;
68072;SDS011;54862;51.502;7.446;2022-12-18T11:42:30;6.18;;;2.72;;
68072;SDS011;54862;51.502;7.446;2022-12-18T11:45:23;7.22;;;2.78;;
68072;SDS011;54862;51.502;7.446;2022-12-18T11:47:55;7.75;;;3.38;;
68072;SDS011;54862;51.502;7.446;2022-12-18T11:50:26;5.28;;;2.67;;
68072;SDS011;54862;51.502;7.446;2022-12-18T11:52:54;6.35;;;2.75;;
68072;SDS011;54862;51.502;7.446;2022-12-18T12:00:13;8.00;;;2.45;;
68072;SDS011;54862;51.502;7.446;2022-12-18T12:05:28;10.25;;;2.72;;
68072;SDS011;54862;51.502;7.446;2022-12-18T12:08:01;6.80;;;2.63;;
68072;SDS011;54862;51.502;7.446;2022-12-18T12:16:10;9.73;;;3.38;;
68072;SDS011;54862;51.502;7.446;2022-12-18T12:26:22;8.13;;;3.22;;
68072;SDS011;54862;51.502;7.446;2022-12-18T12:31:31;11.05;;;2.75;;
68072;SDS011;54862;51.502;7.446;2022-12-18T12:39:17;8.15;;;3.25;;
68072;SDS011;54862;51.502;7.446;2022-12-18T12:41:44;10.93;;;4.22;;
68072;SDS011;54862;51.502;7.446;2022-12-18T12:44:32;12.63;;;6.35;;
68072;SDS011;54862;51.502;7.446;2022-12-18T12:47:00;12.07;;;5.85;;
68072;SDS011;54862;51.502;7.446;2022-12-18T12:49:29;11.30;;;5.28;;
68072;SDS011;54862;51.502;7.446;2022-12-18T12:54:25;12.98;;;6.10;;
68072;SDS011;54862;51.502;7.446;2022-12-18T12:57:03;10.30;;;5.65;;
68072;SDS011;54862;51.502;7.446;2022-12-18T13:02:23;13.23;;;6.45;;
68072;SDS011;54862;51.502;7.446;2022-12-18T13:04:56;19.80;;;6.50;;
68072;SDS011;54862;51.502;7.446;2022-12-18T13:12:34;12.38;;;6.03;;
68072;SDS011;54862;51.502;7.446;2022-12-18T13:15:29;12.45;;;5.35;;
68072;SDS011;54862;51.502;7.446;2022-12-18T13:20:38;13.18;;;6.63;;
68072;SDS011;54862;51.502;7.446;2022-12-18T13:23:19;12.13;;;5.78;;
68072;SDS011;54862;51.502;7.446;2022-12-18T13:25:45;16.63;;;6.15;;
68072;SDS011;54862;51.502;7.446;2022-12-18T13:28:12;15.90;;;6.28;;
68072;SDS011;54862;51.502;7.446;2022-12-18T13:43:31;18.63;;;7.45;;
68072;SDS011;54862;51.502;7.446;2022-12-18T13:48:25;14.13;;;7.40;;
68072;SDS011;54862;51.502;7.446;2022-12-18T13:50:52;17.35;;;7.97;;
68072;SDS011;54862;51.502;7.446;2022-12-18T13:56:04;13.15;;;6.50;;
68072;SDS011;54862;51.502;7.446;2022-12-18T13:58:30;13.70;;;6.25;;
68072;SDS011;54862;51.502;7.446;2022-12-18T14:00:57;12.50;;;4.68;;
68072;SDS011;54862;51.502;7.446;2022-12-18T14:03:25;11.52;;;5.10;;
68072;SDS011;54862;51.502;7.446;2022-12-18T14:05:59;11.48;;;4.25;;
68072;SDS011;54862;51.502;7.446;2022-12-18T14:08:26;10.05;;;3.85;;
68072;SDS011;54862;51.502;7.446;2022-12-18T14:10:53;11.45;;;4.40;;
68072;SDS011;54862;51.502;7.446;2022-12-18T14:15:54;10.70;;;4.25;;
68072;SDS011;54862;51.502;7.446;2022-12-18T14:20:48;10.68;;;4.50;;
68072;SDS011;54862;51.502;7.446;2022-12-18T14:23:33;10.85;;;4.45;;
68072;SDS011;54862;51.502;7.446;2022-12-18T14:26:01;10.45;;;4.55;;
68072;SDS011;54862;51.502;7.446;2022-12-18T14:28:27;14.75;;;4.35;;
68072;SDS011;54862;51.502;7.446;2022-12-18T14:30:54;10.85;;;4.63;;
68072;SDS011;54862;51.502;7.446;2022-12-18T14:33:24;10.45;;;4.68;;
68072;SDS011;54862;51.502;7.446;2022-12-18T14:35:57;10.85;;;4.45;;
68072;SDS011;54862;51.502;7.446;2022-12-18T14:38:35;11.02;;;4.40;;
68072;SDS011;54862;51.502;7.446;2022-12-18T14:43:56;10.18;;;4.43;;
68072;SDS011;54862;51.502;7.446;2022-12-18T14:49:19;12.50;;;4.90;;
68072;SDS011;54862;51.502;7.446;2022-12-18T14:51:50;16.92;;;4.93;;
68072;SDS011;54862;51.502;7.446;2022-12-18T14:54:17;14.15;;;5.68;;
68072;SDS011;54862;51.502;7.446;2022-12-18T14:56:45;12.50;;;5.28;;
68072;SDS011;54862;51.502;7.446;2022-12-18T14:59:13;11.38;;;4.68;;
68072;SDS011;54862;51.502;7.446;2022-12-18T15:04:23;10.18;;;4.38;;
68072;SDS011;54862;51.502;7.446;2022-12-18T15:06:50;11.60;;;4.90;;
68072;SDS011;54862;51.502;7.446;2022-12-18T15:09:27;12.82;;;5.03;;
68072;SDS011;54862;51.502;7.446;2022-12-18T15:11:57;12.88;;;5.20;;
68072;SDS011;54862;51.502;7.446;2022-12-18T15:14:30;12.30;;;4.78;;
68072;SDS011;54862;51.502;7.446;2022-12-18T15:16:57;11.73;;;5.72;;
68072;SDS011;54862;51.502;7.446;2022-12-18T15:19:27;13.38;;;5.57;;
68072;SDS011;54862;51.502;7.446;2022-12-18T15:21:57;12.32;;;4.75;;
68072;SDS011;54862;51.502;7.446;2022-12-18T15:24:24;11.73;;;5.00;;
68072;SDS011;54862;51.502;7.446;2022-12-18T15:26:52;14.10;;;5.47;;
68072;SDS011;54862;51.502;7.446;2022-12-18T15:29:18;11.85;;;5.05;;
68072;SDS011;54862;51.502;7.446;2022-12-18T15:31:45;10.32;;;5.07;;
68072;SDS011;54862;51.502;7.446;2022-12-18T15:34:23;12.57;;;5.03;;
68072;SDS011;54862;51.502;7.446;2022-12-18T15:36:50;11.52;;;5.00;;
68072;SDS011;54862;51.502;7.446;2022-12-18T15:39:16;14.63;;;6.28;;
68072;SDS011;54862;51.502;7.446;2022-12-18T15:41:42;12.73;;;5.15;;
68072;SDS011;54862;51.502;7.446;2022-12-18T15:44:28;13.35;;;5.50;;
68072;SDS011;54862;51.502;7.446;2022-12-18T15:46:57;13.02;;;6.35;;
68072;SDS011;54862;51.502;7.446;2022-12-18T15:49:23;13.43;;;6.38;;
68072;SDS011;54862;51.502;7.446;2022-12-18T15:51:51;18.50;;;6.13;;
68072;SDS011;54862;51.502;7.446;2022-12-18T15:54:18;13.35;;;5.75;;
68072;SDS011;54862;51.502;7.446;2022-12-18T15:57:04;15.35;;;5.72;;
68072;SDS011;54862;51.502;7.446;2022-12-18T15:59:48;12.63;;;6.07;;
68072;SDS011;54862;51.502;7.446;2022-12-18T16:02:16;16.33;;;6.22;;
68072;SDS011;54862;51.502;7.446;2022-12-18T16:04:42;13.05;;;6.10;;
68072;SDS011;54862;51.502;7.446;2022-12-18T16:07:08;14.65;;;6.07;;
68072;SDS011;54862;51.502;7.446;2022-12-18T16:09:35;16.02;;;6.57;;
68072;SDS011;54862;51.502;7.446;2022-12-18T16:12:01;17.60;;;7.57;;
68072;SDS011;54862;51.502;7.446;2022-12-18T16:14:28;14.43;;;6.47;;
68072;SDS011;54862;51.502;7.446;2022-12-18T16:16:56;19.17;;;6.95;;
68072;SDS011;54862;51.502;7.446;2022-12-18T16:19:22;16.80;;;6.72;;
68072;SDS011;54862;51.502;7.446;2022-12-18T16:21:49;16.85;;;7.45;;
68072;SDS011;54862;51.502;7.446;2022-12-18T16:24:16;16.27;;;6.72;;
68072;SDS011;54862;51.502;7.446;2022-12-18T16:26:43;16.65;;;6.63;;
68072;SDS011;54862;51.502;7.446;2022-12-18T16:29:09;14.43;;;6.78;;
68072;SDS011;54862;51.502;7.446;2022-12-18T16:31:36;17.17;;;8.02;;
68072;SDS011;54862;51.502;7.446;2022-12-18T16:34:22;17.23;;;7.35;;
68072;SDS011;54862;51.502;7.446;2022-12-18T16:36:49;16.05;;;7.22;;
68072;SDS011;54862;51.502;7.446;2022-12-18T16:39:15;18.17;;;8.35;;
68072;SDS011;54862;51.502;7.446;2022-12-18T16:41:41;20.08;;;8.45;;
68072;SDS011;54862;51.502;7.446;2022-12-18T16:44:08;17.60;;;8.07;;